sensor_id;sensor_type;location;lat;lon;timestamp;P1;durP1;ratioP1;P2;durP2;ratioP2
58384;SDS011;44185;47.844;8.966;2023-05-23T00:00:56;15.15;;;8.02;;
58384;SDS011;44185;47.844;8.966;2023-05-23T00:03:22;14.85;;;8.27;;
58384;SDS011;44185;47.844;8.966;2023-05-23T00:05:49;14.10;;;7.63;;
58384;SDS011;44185;47.844;8.966;2023-05-23T00:08:14;15.40;;;7.97;;
58384;SDS011;44185;47.844;8.966;2023-05-23T00:10:39;15.05;;;7.95;;
58384;SDS011;44185;47.844;8.966;2023-05-23T00:13:05;16.75;;;7.85;;
58384;SDS011;44185;47.844;8.966;2023-05-23T00:15:30;13.20;;;7.50;;
58384;SDS011;44185;47.844;8.966;2023-05-23T00:17:56;15.93;;;8.10;;
58384;SDS011;44185;47.844;8.966;2023-05-23T00:20:21;14.20;;;8.02;;
58384;SDS011;44185;47.844;8.966;2023-05-23T00:22:48;15.05;;;8.45;;
58384;SDS011;44185;47.844;8.966;2023-05-23T00:25:13;14.93;;;7.43;;
58384;SDS011;44185;47.844;8.966;2023-05-23T00:27:39;15.77;;;7.80;;
58384;SDS011;44185;47.844;8.966;2023-05-23T00:30:05;13.02;;;7.63;;
58384;SDS011;44185;47.844;8.966;2023-05-23T00:32:34;15.07;;;7.80;;
58384;SDS011;44185;47.844;8.966;2023-05-23T00:34:59;13.73;;;7.50;;
58384;SDS011;44185;47.844;8.966;2023-05-23T00:37:25;12.90;;;7.40;;
58384;SDS011;44185;47.844;8.966;2023-05-23T00:39:52;14.40;;;7.70;;
58384;SDS011;44185;47.844;8.966;2023-05-23T00:42:17;12.85;;;7.28;;
58384;SDS011;44185;47.844;8.966;2023-05-23T00:44:42;13.38;;;7.85;;
58384;SDS011;44185;47.844;8.966;2023-05-23T00:47:08;15.85;;;8.70;;
58384;SDS011;44185;47.844;8.966;2023-05-23T00:49:34;14.55;;;7.45;;
58384;SDS011;44185;47.844;8.966;2023-05-23T00:51:59;15.23;;;7.88;;
58384;SDS011;44185;47.844;8.966;2023-05-23T00:54:26;14.93;;;7.80;;
58384;SDS011;44185;47.844;8.966;2023-05-23T00:56:54;14.32;;;7.93;;
58384;SDS011;44185;47.844;8.966;2023-05-23T00:59:20;15.25;;;7.65;;
58384;SDS011;44185;47.844;8.966;2023-05-23T01:01:47;16.08;;;8.45;;
58384;SDS011;44185;47.844;8.966;2023-05-23T01:04:14;16.13;;;8.48;;
58384;SDS011;44185;47.844;8.966;2023-05-23T01:06:40;14.70;;;8.18;;
58384;SDS011;44185;47.844;8.966;2023-05-23T01:09:05;15.68;;;8.48;;
58384;SDS011;44185;47.844;8.966;2023-05-23T01:11:32;14.05;;;7.68;;
58384;SDS011;44185;47.844;8.966;2023-05-23T01:14:06;14.20;;;7.85;;
58384;SDS011;44185;47.844;8.966;2023-05-23T01:16:38;15.05;;;8.80;;
58384;SDS011;44185;47.844;8.966;2023-05-23T01:19:15;14.82;;;8.18;;
58384;SDS011;44185;47.844;8.966;2023-05-23T01:21:57;15.02;;;7.82;;
58384;SDS011;44185;47.844;8.966;2023-05-23T01:24:31;13.93;;;7.20;;
58384;SDS011;44185;47.844;8.966;2023-05-23T01:27:07;15.98;;;7.80;;
58384;SDS011;44185;47.844;8.966;2023-05-23T01:29:45;13.90;;;7.63;;
58384;SDS011;44185;47.844;8.966;2023-05-23T01:32:14;13.80;;;7.88;;
58384;SDS011;44185;47.844;8.966;2023-05-23T01:34:40;14.68;;;8.23;;
58384;SDS011;44185;47.844;8.966;2023-05-23T01:37:07;14.65;;;7.82;;
58384;SDS011;44185;47.844;8.966;2023-05-23T01:39:33;14.30;;;6.95;;
58384;SDS011;44185;47.844;8.966;2023-05-23T01:41:59;13.63;;;7.53;;
58384;SDS011;44185;47.844;8.966;2023-05-23T01:44:24;14.27;;;7.97;;
58384;SDS011;44185;47.844;8.966;2023-05-23T01:46:51;14.38;;;8.10;;
58384;SDS011;44185;47.844;8.966;2023-05-23T01:49:17;14.00;;;7.35;;
58384;SDS011;44185;47.844;8.966;2023-05-23T01:51:43;15.00;;;8.07;;
58384;SDS011;44185;47.844;8.966;2023-05-23T01:54:10;12.93;;;7.63;;
58384;SDS011;44185;47.844;8.966;2023-05-23T01:56:36;14.38;;;7.82;;
58384;SDS011;44185;47.844;8.966;2023-05-23T01:59:02;14.65;;;7.65;;
58384;SDS011;44185;47.844;8.966;2023-05-23T02:01:27;15.18;;;8.23;;
58384;SDS011;44185;47.844;8.966;2023-05-23T02:03:54;12.30;;;7.30;;
58384;SDS011;44185;47.844;8.966;2023-05-23T02:06:20;14.15;;;7.57;;
58384;SDS011;44185;47.844;8.966;2023-05-23T02:08:45;15.48;;;7.85;;
58384;SDS011;44185;47.844;8.966;2023-05-23T02:11:11;15.20;;;8.70;;
58384;SDS011;44185;47.844;8.966;2023-05-23T02:13:36;14.25;;;8.07;;
58384;SDS011;44185;47.844;8.966;2023-05-23T02:16:02;15.63;;;8.05;;
58384;SDS011;44185;47.844;8.966;2023-05-23T02:18:27;13.82;;;7.85;;
58384;SDS011;44185;47.844;8.966;2023-05-23T02:20:54;16.83;;;7.97;;
58384;SDS011;44185;47.844;8.966;2023-05-23T02:23:20;14.35;;;7.72;;
58384;SDS011;44185;47.844;8.966;2023-05-23T02:25:45;17.25;;;7.97;;
58384;SDS011;44185;47.844;8.966;2023-05-23T02:28:11;15.77;;;8.55;;
58384;SDS011;44185;47.844;8.966;2023-05-23T02:30:36;16.73;;;8.88;;
58384;SDS011;44185;47.844;8.966;2023-05-23T02:33:03;15.65;;;7.60;;
58384;SDS011;44185;47.844;8.966;2023-05-23T02:35:29;15.80;;;8.30;;
58384;SDS011;44185;47.844;8.966;2023-05-23T02:37:56;16.67;;;8.65;;
58384;SDS011;44185;47.844;8.966;2023-05-23T02:40:21;15.03;;;8.37;;
58384;SDS011;44185;47.844;8.966;2023-05-23T02:42:46;14.77;;;8.32;;
58384;SDS011;44185;47.844;8.966;2023-05-23T02:45:12;17.52;;;8.73;;
58384;SDS011;44185;47.844;8.966;2023-05-23T02:47:37;15.27;;;8.20;;
58384;SDS011;44185;47.844;8.966;2023-05-23T02:50:03;14.52;;;7.70;;
58384;SDS011;44185;47.844;8.966;2023-05-23T02:52:29;15.40;;;7.75;;
58384;SDS011;44185;47.844;8.966;2023-05-23T02:54:56;13.73;;;7.47;;
58384;SDS011;44185;47.844;8.966;2023-05-23T02:57:21;15.18;;;7.38;;
58384;SDS011;44185;47.844;8.966;2023-05-23T02:59:46;15.57;;;8.38;;
58384;SDS011;44185;47.844;8.966;2023-05-23T03:02:12;18.90;;;8.88;;
58384;SDS011;44185;47.844;8.966;2023-05-23T03:04:37;15.23;;;8.77;;
58384;SDS011;44185;47.844;8.966;2023-05-23T03:07:03;15.90;;;8.30;;
58384;SDS011;44185;47.844;8.966;2023-05-23T03:09:28;15.07;;;8.35;;
58384;SDS011;44185;47.844;8.966;2023-05-23T03:11:55;16.73;;;8.20;;
58384;SDS011;44185;47.844;8.966;2023-05-23T03:14:20;15.70;;;8.48;;
58384;SDS011;44185;47.844;8.966;2023-05-23T03:16:46;15.82;;;8.30;;
58384;SDS011;44185;47.844;8.966;2023-05-23T03:19:11;15.45;;;8.27;;
58384;SDS011;44185;47.844;8.966;2023-05-23T03:21:37;17.13;;;8.40;;
58384;SDS011;44185;47.844;8.966;2023-05-23T03:24:02;17.38;;;8.70;;
58384;SDS011;44185;47.844;8.966;2023-05-23T03:26:28;14.98;;;8.27;;
58384;SDS011;44185;47.844;8.966;2023-05-23T03:28:55;17.15;;;8.48;;
58384;SDS011;44185;47.844;8.966;2023-05-23T03:31:20;15.50;;;8.43;;
58384;SDS011;44185;47.844;8.966;2023-05-23T03:33:46;16.63;;;8.73;;
58384;SDS011;44185;47.844;8.966;2023-05-23T03:36:11;15.02;;;8.05;;
58384;SDS011;44185;47.844;8.966;2023-05-23T03:38:37;15.85;;;8.55;;
58384;SDS011;44185;47.844;8.966;2023-05-23T03:41:02;15.65;;;8.65;;
58384;SDS011;44185;47.844;8.966;2023-05-23T03:43:28;15.95;;;9.18;;
58384;SDS011;44185;47.844;8.966;2023-05-23T03:45:54;16.95;;;8.98;;
58384;SDS011;44185;47.844;8.966;2023-05-23T03:48:20;19.48;;;10.30;;
58384;SDS011;44185;47.844;8.966;2023-05-23T03:50:46;17.75;;;9.00;;
58384;SDS011;44185;47.844;8.966;2023-05-23T03:53:11;18.20;;;9.32;;
58384;SDS011;44185;47.844;8.966;2023-05-23T03:55:37;16.63;;;9.57;;
58384;SDS011;44185;47.844;8.966;2023-05-23T03:58:03;17.52;;;9.05;;
58384;SDS011;44185;47.844;8.966;2023-05-23T04:00:28;18.63;;;9.63;;
58384;SDS011;44185;47.844;8.966;2023-05-23T04:02:55;16.25;;;9.40;;
58384;SDS011;44185;47.844;8.966;2023-05-23T04:05:20;16.90;;;9.45;;
58384;SDS011;44185;47.844;8.966;2023-05-23T04:07:46;16.70;;;8.75;;
58384;SDS011;44185;47.844;8.966;2023-05-23T04:10:11;16.73;;;9.20;;
58384;SDS011;44185;47.844;8.966;2023-05-23T04:12:36;16.25;;;9.10;;
58384;SDS011;44185;47.844;8.966;2023-05-23T04:15:02;18.33;;;8.52;;
58384;SDS011;44185;47.844;8.966;2023-05-23T04:17:28;15.40;;;8.25;;
58384;SDS011;44185;47.844;8.966;2023-05-23T04:19:55;17.15;;;8.45;;
58384;SDS011;44185;47.844;8.966;2023-05-23T04:22:20;15.65;;;8.63;;
58384;SDS011;44185;47.844;8.966;2023-05-23T04:24:46;16.63;;;8.80;;
58384;SDS011;44185;47.844;8.966;2023-05-23T04:27:11;17.85;;;9.00;;
58384;SDS011;44185;47.844;8.966;2023-05-23T04:29:37;17.92;;;8.80;;
58384;SDS011;44185;47.844;8.966;2023-05-23T04:32:02;16.20;;;8.85;;
58384;SDS011;44185;47.844;8.966;2023-05-23T04:34:28;19.45;;;9.75;;
58384;SDS011;44185;47.844;8.966;2023-05-23T04:36:54;17.55;;;9.50;;
58384;SDS011;44185;47.844;8.966;2023-05-23T04:39:20;19.25;;;9.55;;
58384;SDS011;44185;47.844;8.966;2023-05-23T04:41:45;16.75;;;8.90;;
58384;SDS011;44185;47.844;8.966;2023-05-23T04:44:11;16.23;;;8.90;;
58384;SDS011;44185;47.844;8.966;2023-05-23T04:46:36;20.27;;;9.40;;
58384;SDS011;44185;47.844;8.966;2023-05-23T04:49:02;20.73;;;10.43;;
58384;SDS011;44185;47.844;8.966;2023-05-23T04:51:27;26.33;;;11.52;;
58384;SDS011;44185;47.844;8.966;2023-05-23T04:53:54;20.75;;;10.43;;
58384;SDS011;44185;47.844;8.966;2023-05-23T04:56:19;22.15;;;10.85;;
58384;SDS011;44185;47.844;8.966;2023-05-23T04:58:45;22.63;;;11.38;;
58384;SDS011;44185;47.844;8.966;2023-05-23T05:01:10;25.27;;;10.55;;
58384;SDS011;44185;47.844;8.966;2023-05-23T05:03:36;22.02;;;10.38;;
58384;SDS011;44185;47.844;8.966;2023-05-23T05:06:01;18.65;;;10.60;;
58384;SDS011;44185;47.844;8.966;2023-05-23T05:08:27;19.80;;;10.70;;
58384;SDS011;44185;47.844;8.966;2023-05-23T05:10:54;20.50;;;11.02;;
58384;SDS011;44185;47.844;8.966;2023-05-23T05:13:19;19.45;;;10.70;;
58384;SDS011;44185;47.844;8.966;2023-05-23T05:15:45;21.83;;;10.68;;
58384;SDS011;44185;47.844;8.966;2023-05-23T05:18:10;19.27;;;10.32;;
58384;SDS011;44185;47.844;8.966;2023-05-23T05:20:36;22.90;;;13.45;;
58384;SDS011;44185;47.844;8.966;2023-05-23T05:23:01;23.45;;;12.57;;
58384;SDS011;44185;47.844;8.966;2023-05-23T05:25:26;20.25;;;12.20;;
58384;SDS011;44185;47.844;8.966;2023-05-23T05:27:53;27.25;;;11.48;;
58384;SDS011;44185;47.844;8.966;2023-05-23T05:30:19;25.20;;;12.13;;
58384;SDS011;44185;47.844;8.966;2023-05-23T05:32:44;25.02;;;12.77;;
58384;SDS011;44185;47.844;8.966;2023-05-23T05:35:10;21.13;;;11.00;;
58384;SDS011;44185;47.844;8.966;2023-05-23T05:37:35;21.73;;;10.80;;
58384;SDS011;44185;47.844;8.966;2023-05-23T05:40:01;23.30;;;11.68;;
58384;SDS011;44185;47.844;8.966;2023-05-23T05:42:26;21.60;;;11.52;;
58384;SDS011;44185;47.844;8.966;2023-05-23T05:44:53;29.58;;;13.00;;
58384;SDS011;44185;47.844;8.966;2023-05-23T05:47:19;23.25;;;11.60;;
58384;SDS011;44185;47.844;8.966;2023-05-23T05:49:44;21.83;;;11.20;;
58384;SDS011;44185;47.844;8.966;2023-05-23T05:52:10;19.42;;;10.80;;
58384;SDS011;44185;47.844;8.966;2023-05-23T05:54:35;21.63;;;11.25;;
58384;SDS011;44185;47.844;8.966;2023-05-23T05:57:01;19.88;;;11.27;;
58384;SDS011;44185;47.844;8.966;2023-05-23T05:59:26;18.17;;;10.57;;
58384;SDS011;44185;47.844;8.966;2023-05-23T06:01:53;19.63;;;11.20;;
58384;SDS011;44185;47.844;8.966;2023-05-23T06:04:19;19.42;;;11.18;;
58384;SDS011;44185;47.844;8.966;2023-05-23T06:06:44;18.60;;;11.38;;
58384;SDS011;44185;47.844;8.966;2023-05-23T06:09:10;20.30;;;10.85;;
58384;SDS011;44185;47.844;8.966;2023-05-23T06:11:35;20.48;;;10.75;;
58384;SDS011;44185;47.844;8.966;2023-05-23T06:14:01;20.10;;;11.45;;
58384;SDS011;44185;47.844;8.966;2023-05-23T06:16:26;19.52;;;12.35;;
58384;SDS011;44185;47.844;8.966;2023-05-23T06:18:53;23.60;;;12.32;;
58384;SDS011;44185;47.844;8.966;2023-05-23T06:21:19;19.48;;;11.25;;
58384;SDS011;44185;47.844;8.966;2023-05-23T06:23:44;24.17;;;12.63;;
58384;SDS011;44185;47.844;8.966;2023-05-23T06:26:10;22.80;;;11.80;;
58384;SDS011;44185;47.844;8.966;2023-05-23T06:28:36;22.65;;;12.35;;
58384;SDS011;44185;47.844;8.966;2023-05-23T06:31:02;23.92;;;12.18;;
58384;SDS011;44185;47.844;8.966;2023-05-23T06:33:27;23.38;;;12.60;;
58384;SDS011;44185;47.844;8.966;2023-05-23T06:35:54;26.80;;;13.95;;
58384;SDS011;44185;47.844;8.966;2023-05-23T06:38:19;22.65;;;11.90;;
58384;SDS011;44185;47.844;8.966;2023-05-23T06:40:45;23.30;;;13.10;;
58384;SDS011;44185;47.844;8.966;2023-05-23T06:43:10;22.77;;;13.55;;
58384;SDS011;44185;47.844;8.966;2023-05-23T06:45:36;25.00;;;13.13;;
58384;SDS011;44185;47.844;8.966;2023-05-23T06:48:01;22.00;;;12.40;;
58384;SDS011;44185;47.844;8.966;2023-05-23T06:50:26;21.70;;;12.57;;
58384;SDS011;44185;47.844;8.966;2023-05-23T06:52:53;23.50;;;12.88;;
58384;SDS011;44185;47.844;8.966;2023-05-23T06:55:19;26.23;;;14.32;;
58384;SDS011;44185;47.844;8.966;2023-05-23T06:57:44;24.05;;;12.95;;
58384;SDS011;44185;47.844;8.966;2023-05-23T07:00:10;25.77;;;14.13;;
58384;SDS011;44185;47.844;8.966;2023-05-23T07:02:36;22.23;;;13.13;;
58384;SDS011;44185;47.844;8.966;2023-05-23T07:05:02;25.03;;;13.33;;
58384;SDS011;44185;47.844;8.966;2023-05-23T07:07:28;25.70;;;14.15;;
58384;SDS011;44185;47.844;8.966;2023-05-23T07:09:55;24.75;;;13.48;;
58384;SDS011;44185;47.844;8.966;2023-05-23T07:12:20;26.05;;;13.18;;
58384;SDS011;44185;47.844;8.966;2023-05-23T07:14:45;21.88;;;12.80;;
58384;SDS011;44185;47.844;8.966;2023-05-23T07:17:11;24.30;;;13.63;;
58384;SDS011;44185;47.844;8.966;2023-05-23T07:19:36;27.10;;;14.05;;
58384;SDS011;44185;47.844;8.966;2023-05-23T07:22:02;28.42;;;15.00;;
58384;SDS011;44185;47.844;8.966;2023-05-23T07:24:27;29.65;;;14.40;;
58384;SDS011;44185;47.844;8.966;2023-05-23T07:26:54;27.10;;;14.80;;
58384;SDS011;44185;47.844;8.966;2023-05-23T07:29:19;27.02;;;15.05;;
58384;SDS011;44185;47.844;8.966;2023-05-23T07:31:45;24.92;;;15.23;;
58384;SDS011;44185;47.844;8.966;2023-05-23T07:34:10;26.73;;;14.75;;
58384;SDS011;44185;47.844;8.966;2023-05-23T07:36:36;24.67;;;14.25;;
58384;SDS011;44185;47.844;8.966;2023-05-23T07:39:01;25.10;;;14.68;;
58384;SDS011;44185;47.844;8.966;2023-05-23T07:41:27;25.15;;;14.70;;
58384;SDS011;44185;47.844;8.966;2023-05-23T07:43:54;30.75;;;18.75;;
58384;SDS011;44185;47.844;8.966;2023-05-23T07:46:19;28.23;;;14.75;;
58384;SDS011;44185;47.844;8.966;2023-05-23T07:48:44;27.50;;;14.77;;
58384;SDS011;44185;47.844;8.966;2023-05-23T07:51:10;25.70;;;14.25;;
58384;SDS011;44185;47.844;8.966;2023-05-23T07:53:35;27.23;;;14.90;;
58384;SDS011;44185;47.844;8.966;2023-05-23T07:56:01;27.95;;;15.38;;
58384;SDS011;44185;47.844;8.966;2023-05-23T07:58:26;25.80;;;14.52;;
58384;SDS011;44185;47.844;8.966;2023-05-23T08:00:53;27.55;;;14.65;;
58384;SDS011;44185;47.844;8.966;2023-05-23T08:03:19;26.52;;;15.18;;
58384;SDS011;44185;47.844;8.966;2023-05-23T08:05:45;26.52;;;15.35;;
58384;SDS011;44185;47.844;8.966;2023-05-23T08:08:11;28.05;;;15.50;;
58384;SDS011;44185;47.844;8.966;2023-05-23T08:10:36;27.95;;;14.57;;
58384;SDS011;44185;47.844;8.966;2023-05-23T08:13:02;28.50;;;14.68;;
58384;SDS011;44185;47.844;8.966;2023-05-23T08:15:27;26.20;;;15.48;;
58384;SDS011;44185;47.844;8.966;2023-05-23T08:17:54;29.13;;;15.57;;
58384;SDS011;44185;47.844;8.966;2023-05-23T08:20:19;27.77;;;15.38;;
58384;SDS011;44185;47.844;8.966;2023-05-23T08:22:45;27.35;;;15.45;;
58384;SDS011;44185;47.844;8.966;2023-05-23T08:25:10;25.70;;;14.35;;
58384;SDS011;44185;47.844;8.966;2023-05-23T08:27:36;27.02;;;15.20;;
58384;SDS011;44185;47.844;8.966;2023-05-23T08:30:02;26.70;;;15.15;;
58384;SDS011;44185;47.844;8.966;2023-05-23T08:32:27;28.23;;;15.50;;
58384;SDS011;44185;47.844;8.966;2023-05-23T08:34:54;26.80;;;14.88;;
58384;SDS011;44185;47.844;8.966;2023-05-23T08:37:20;28.52;;;15.52;;
58384;SDS011;44185;47.844;8.966;2023-05-23T08:39:45;28.13;;;14.93;;
58384;SDS011;44185;47.844;8.966;2023-05-23T08:42:11;28.52;;;15.32;;
58384;SDS011;44185;47.844;8.966;2023-05-23T08:44:36;30.23;;;15.00;;
58384;SDS011;44185;47.844;8.966;2023-05-23T08:47:02;27.67;;;15.32;;
58384;SDS011;44185;47.844;8.966;2023-05-23T08:49:28;29.75;;;16.10;;
58384;SDS011;44185;47.844;8.966;2023-05-23T08:51:55;24.48;;;14.65;;
58384;SDS011;44185;47.844;8.966;2023-05-23T08:54:25;28.80;;;14.80;;
58384;SDS011;44185;47.844;8.966;2023-05-23T08:56:51;29.15;;;15.50;;
58384;SDS011;44185;47.844;8.966;2023-05-23T08:59:16;26.88;;;15.07;;
58384;SDS011;44185;47.844;8.966;2023-05-23T09:01:42;26.63;;;14.60;;
58384;SDS011;44185;47.844;8.966;2023-05-23T09:04:09;30.33;;;15.70;;
58384;SDS011;44185;47.844;8.966;2023-05-23T09:06:36;28.30;;;15.68;;
58384;SDS011;44185;47.844;8.966;2023-05-23T09:09:03;27.45;;;15.48;;
58384;SDS011;44185;47.844;8.966;2023-05-23T09:11:28;27.75;;;15.55;;
58384;SDS011;44185;47.844;8.966;2023-05-23T09:13:54;28.50;;;15.35;;
58384;SDS011;44185;47.844;8.966;2023-05-23T09:16:19;28.85;;;16.50;;
58384;SDS011;44185;47.844;8.966;2023-05-23T09:18:45;26.73;;;15.63;;
58384;SDS011;44185;47.844;8.966;2023-05-23T09:21:11;27.95;;;15.52;;
58384;SDS011;44185;47.844;8.966;2023-05-23T09:23:38;29.63;;;15.32;;
58384;SDS011;44185;47.844;8.966;2023-05-23T09:26:06;26.88;;;15.68;;
58384;SDS011;44185;47.844;8.966;2023-05-23T09:28:33;28.17;;;16.02;;
58384;SDS011;44185;47.844;8.966;2023-05-23T09:30:59;26.73;;;16.00;;
58384;SDS011;44185;47.844;8.966;2023-05-23T09:33:33;30.65;;;16.17;;
58384;SDS011;44185;47.844;8.966;2023-05-23T09:36:00;27.83;;;15.13;;
58384;SDS011;44185;47.844;8.966;2023-05-23T09:38:27;29.23;;;16.17;;
58384;SDS011;44185;47.844;8.966;2023-05-23T09:40:53;31.17;;;16.17;;
58384;SDS011;44185;47.844;8.966;2023-05-23T09:43:20;27.88;;;15.88;;
58384;SDS011;44185;47.844;8.966;2023-05-23T09:45:46;29.75;;;16.48;;
58384;SDS011;44185;47.844;8.966;2023-05-23T09:48:11;29.35;;;16.13;;
58384;SDS011;44185;47.844;8.966;2023-05-23T09:50:37;29.30;;;16.35;;
58384;SDS011;44185;47.844;8.966;2023-05-23T09:53:02;28.98;;;16.17;;
58384;SDS011;44185;47.844;8.966;2023-05-23T09:55:28;25.38;;;15.40;;
58384;SDS011;44185;47.844;8.966;2023-05-23T09:57:53;31.63;;;16.67;;
58384;SDS011;44185;47.844;8.966;2023-05-23T10:00:21;30.08;;;16.15;;
58384;SDS011;44185;47.844;8.966;2023-05-23T10:02:54;28.67;;;16.45;;
58384;SDS011;44185;47.844;8.966;2023-05-23T10:05:27;31.10;;;16.75;;
58384;SDS011;44185;47.844;8.966;2023-05-23T10:07:57;30.63;;;16.85;;
58384;SDS011;44185;47.844;8.966;2023-05-23T10:10:25;37.67;;;19.20;;
58384;SDS011;44185;47.844;8.966;2023-05-23T10:12:55;33.22;;;19.20;;
58384;SDS011;44185;47.844;8.966;2023-05-23T10:15:25;33.75;;;18.27;;
58384;SDS011;44185;47.844;8.966;2023-05-23T10:18:01;30.92;;;17.85;;
58384;SDS011;44185;47.844;8.966;2023-05-23T10:20:31;34.95;;;19.30;;
58384;SDS011;44185;47.844;8.966;2023-05-23T10:22:59;35.55;;;19.05;;
58384;SDS011;44185;47.844;8.966;2023-05-23T10:25:25;34.67;;;18.60;;
58384;SDS011;44185;47.844;8.966;2023-05-23T10:27:52;36.45;;;19.67;;
58384;SDS011;44185;47.844;8.966;2023-05-23T10:30:19;35.43;;;20.00;;
58384;SDS011;44185;47.844;8.966;2023-05-23T10:32:46;33.60;;;17.55;;
58384;SDS011;44185;47.844;8.966;2023-05-23T10:35:15;30.65;;;15.63;;
58384;SDS011;44185;47.844;8.966;2023-05-23T10:37:48;28.33;;;15.05;;
58384;SDS011;44185;47.844;8.966;2023-05-23T10:40:21;27.52;;;14.95;;
58384;SDS011;44185;47.844;8.966;2023-05-23T10:42:56;26.60;;;15.60;;
58384;SDS011;44185;47.844;8.966;2023-05-23T10:45:26;27.02;;;15.75;;
58384;SDS011;44185;47.844;8.966;2023-05-23T10:47:53;28.05;;;14.77;;
58384;SDS011;44185;47.844;8.966;2023-05-23T10:50:31;28.85;;;15.60;;
58384;SDS011;44185;47.844;8.966;2023-05-23T10:52:58;27.05;;;15.63;;
58384;SDS011;44185;47.844;8.966;2023-05-23T10:55:24;29.58;;;16.88;;
58384;SDS011;44185;47.844;8.966;2023-05-23T11:00:33;29.33;;;16.08;;
58384;SDS011;44185;47.844;8.966;2023-05-23T11:03:03;32.17;;;17.05;;
58384;SDS011;44185;47.844;8.966;2023-05-23T11:05:30;34.50;;;18.20;;
58384;SDS011;44185;47.844;8.966;2023-05-23T11:08:06;31.20;;;18.08;;
58384;SDS011;44185;47.844;8.966;2023-05-23T11:10:33;33.08;;;18.73;;
58384;SDS011;44185;47.844;8.966;2023-05-23T11:13:15;31.42;;;17.88;;
58384;SDS011;44185;47.844;8.966;2023-05-23T11:15:41;31.07;;;17.73;;
58384;SDS011;44185;47.844;8.966;2023-05-23T11:18:08;30.33;;;18.20;;
58384;SDS011;44185;47.844;8.966;2023-05-23T11:20:35;35.72;;;17.80;;
58384;SDS011;44185;47.844;8.966;2023-05-23T11:23:02;29.50;;;17.70;;
58384;SDS011;44185;47.844;8.966;2023-05-23T11:25:38;31.85;;;18.05;;
58384;SDS011;44185;47.844;8.966;2023-05-23T11:28:05;33.08;;;17.58;;
58384;SDS011;44185;47.844;8.966;2023-05-23T11:30:30;29.30;;;16.88;;
58384;SDS011;44185;47.844;8.966;2023-05-23T11:32:55;29.05;;;16.27;;
58384;SDS011;44185;47.844;8.966;2023-05-23T11:35:22;27.83;;;14.73;;
58384;SDS011;44185;47.844;8.966;2023-05-23T11:37:48;29.90;;;16.17;;
58384;SDS011;44185;47.844;8.966;2023-05-23T11:42:54;27.17;;;15.02;;
58384;SDS011;44185;47.844;8.966;2023-05-23T11:45:20;25.83;;;14.55;;
58384;SDS011;44185;47.844;8.966;2023-05-23T11:47:46;26.42;;;15.43;;
58384;SDS011;44185;47.844;8.966;2023-05-23T11:50:14;24.90;;;13.57;;
58384;SDS011;44185;47.844;8.966;2023-05-23T11:52:41;26.48;;;14.80;;
58384;SDS011;44185;47.844;8.966;2023-05-23T11:55:07;24.33;;;14.07;;
58384;SDS011;44185;47.844;8.966;2023-05-23T11:57:36;22.73;;;13.32;;
58384;SDS011;44185;47.844;8.966;2023-05-23T12:00:02;24.45;;;13.18;;
58384;SDS011;44185;47.844;8.966;2023-05-23T12:02:29;24.40;;;12.82;;
58384;SDS011;44185;47.844;8.966;2023-05-23T12:04:55;23.45;;;13.27;;
58384;SDS011;44185;47.844;8.966;2023-05-23T12:07:20;27.08;;;14.75;;
58384;SDS011;44185;47.844;8.966;2023-05-23T12:09:47;26.17;;;14.02;;
58384;SDS011;44185;47.844;8.966;2023-05-23T12:12:13;29.05;;;16.38;;
58384;SDS011;44185;47.844;8.966;2023-05-23T12:14:39;28.13;;;15.65;;
58384;SDS011;44185;47.844;8.966;2023-05-23T12:17:05;29.70;;;15.57;;
58384;SDS011;44185;47.844;8.966;2023-05-23T12:19:30;37.28;;;18.88;;
58384;SDS011;44185;47.844;8.966;2023-05-23T12:21:56;36.08;;;16.95;;
58384;SDS011;44185;47.844;8.966;2023-05-23T12:24:30;30.30;;;16.27;;
58384;SDS011;44185;47.844;8.966;2023-05-23T12:26:58;25.60;;;13.52;;
58384;SDS011;44185;47.844;8.966;2023-05-23T12:29:27;17.63;;;8.47;;
58384;SDS011;44185;47.844;8.966;2023-05-23T12:31:53;13.38;;;6.60;;
58384;SDS011;44185;47.844;8.966;2023-05-23T12:34:19;22.30;;;10.27;;
58384;SDS011;44185;47.844;8.966;2023-05-23T12:36:45;29.48;;;14.18;;
58384;SDS011;44185;47.844;8.966;2023-05-23T12:39:10;40.08;;;18.45;;
58384;SDS011;44185;47.844;8.966;2023-05-23T12:41:36;38.33;;;20.25;;
58384;SDS011;44185;47.844;8.966;2023-05-23T12:44:03;43.15;;;21.85;;
58384;SDS011;44185;47.844;8.966;2023-05-23T12:46:28;31.95;;;15.93;;
58384;SDS011;44185;47.844;8.966;2023-05-23T12:48:53;33.70;;;17.52;;
58384;SDS011;44185;47.844;8.966;2023-05-23T12:51:19;30.30;;;17.08;;
58384;SDS011;44185;47.844;8.966;2023-05-23T12:53:45;32.17;;;16.38;;
58384;SDS011;44185;47.844;8.966;2023-05-23T12:56:11;33.55;;;17.33;;
58384;SDS011;44185;47.844;8.966;2023-05-23T12:58:36;31.73;;;16.42;;
58384;SDS011;44185;47.844;8.966;2023-05-23T13:01:03;30.98;;;16.20;;
58384;SDS011;44185;47.844;8.966;2023-05-23T13:03:29;30.05;;;16.83;;
58384;SDS011;44185;47.844;8.966;2023-05-23T13:05:55;30.77;;;15.93;;
58384;SDS011;44185;47.844;8.966;2023-05-23T13:08:20;32.05;;;16.45;;
58384;SDS011;44185;47.844;8.966;2023-05-23T13:10:46;31.25;;;16.92;;
58384;SDS011;44185;47.844;8.966;2023-05-23T13:13:11;29.67;;;16.10;;
58384;SDS011;44185;47.844;8.966;2023-05-23T13:15:37;29.10;;;15.82;;
58384;SDS011;44185;47.844;8.966;2023-05-23T13:18:04;28.38;;;15.93;;
58384;SDS011;44185;47.844;8.966;2023-05-23T13:20:29;30.02;;;16.13;;
58384;SDS011;44185;47.844;8.966;2023-05-23T13:22:55;29.83;;;16.33;;
58384;SDS011;44185;47.844;8.966;2023-05-23T13:25:20;28.52;;;15.30;;
58384;SDS011;44185;47.844;8.966;2023-05-23T13:27:46;30.50;;;17.13;;
58384;SDS011;44185;47.844;8.966;2023-05-23T13:30:11;27.40;;;16.23;;
58384;SDS011;44185;47.844;8.966;2023-05-23T13:32:37;26.25;;;15.52;;
58384;SDS011;44185;47.844;8.966;2023-05-23T13:35:04;26.27;;;15.75;;
58384;SDS011;44185;47.844;8.966;2023-05-23T13:37:30;29.42;;;16.38;;
58384;SDS011;44185;47.844;8.966;2023-05-23T13:39:56;27.13;;;16.17;;
58384;SDS011;44185;47.844;8.966;2023-05-23T13:42:21;25.55;;;15.32;;
58384;SDS011;44185;47.844;8.966;2023-05-23T13:44:47;25.15;;;15.73;;
58384;SDS011;44185;47.844;8.966;2023-05-23T13:47:13;28.85;;;16.48;;
58384;SDS011;44185;47.844;8.966;2023-05-23T13:49:39;26.70;;;15.70;;
58384;SDS011;44185;47.844;8.966;2023-05-23T13:52:06;28.25;;;15.48;;
58384;SDS011;44185;47.844;8.966;2023-05-23T13:54:31;26.25;;;15.27;;
58384;SDS011;44185;47.844;8.966;2023-05-23T13:56:57;28.90;;;16.00;;
58384;SDS011;44185;47.844;8.966;2023-05-23T13:59:23;27.92;;;16.55;;
58384;SDS011;44185;47.844;8.966;2023-05-23T14:01:50;35.78;;;19.88;;
58384;SDS011;44185;47.844;8.966;2023-05-23T14:04:15;36.03;;;21.95;;
58384;SDS011;44185;47.844;8.966;2023-05-23T14:06:41;42.63;;;22.35;;
58384;SDS011;44185;47.844;8.966;2023-05-23T14:09:08;37.67;;;22.20;;
58384;SDS011;44185;47.844;8.966;2023-05-23T14:11:33;37.77;;;21.13;;
58384;SDS011;44185;47.844;8.966;2023-05-23T14:13:59;33.78;;;20.27;;
58384;SDS011;44185;47.844;8.966;2023-05-23T14:16:24;35.27;;;21.50;;
58384;SDS011;44185;47.844;8.966;2023-05-23T14:18:49;34.15;;;19.75;;
58384;SDS011;44185;47.844;8.966;2023-05-23T14:21:15;34.97;;;19.70;;
58384;SDS011;44185;47.844;8.966;2023-05-23T14:23:40;35.15;;;20.75;;
58384;SDS011;44185;47.844;8.966;2023-05-23T14:26:07;34.75;;;20.30;;